deformed-offering

Nearby METAR Reports

 

KSJC - San Jose, California, USA
Distance from station: NE 9mi, 14km
Updated: Sun, 05-Dec-2021 1:53pm PST
Partly Cloudy
Partly Cloudy
 Wind from varies
Wind: varies 7 mph , 11 km/h
Temperature: 61°F , 16°C
Dew Point: 48°F , 9°C
Humidity: 63%
Barometer: 30.21 inHg , 1023 hPa
Clouds: Partly Cloudy
Visibility: 10 miles , 16 km
Cloud details: Few Clouds 700 ft
Few Clouds 12000 ft
Partly Cloudy 20000 ft
2021/12/05 21:53 KSJC 052153Z VRB06KT 10SM FEW007 FEW120 SCT200 16/09 A3021 RMK AO2 SLP229 T01560089
KPAO - Palo Alto, California, USA
Distance from station: NNW 14mi, 23km
Updated: Sun, 05-Dec-2021 1:47pm PST
Haze, Mostly cloudy
Haze, Mostly cloudy
 Wind from varies
Wind: varies 6 mph , 9 km/h
Temperature: 54°F , 12°C
Dew Point: 50°F , 10°C
Humidity: 88%
Barometer: 30.22 inHg , 1023.4 hPa
Summary: Haze
Clouds: Mostly Cloudy
Visibility: 6 miles , 10 km
Cloud details: Mostly Cloudy 20000 ft
2021/12/05 21:47 KPAO 052147Z VRB05KT 6SM HZ BKN200 12/10 A3022
 
KSQL - San Carlos Airpo, California, USA
Distance from station: NW 21mi, 34km
Updated: Sun, 05-Dec-2021 1:47pm PST
Haze, Few clouds
Haze, Few clouds
 Wind from calm
Wind: Calm
Temperature: 54°F , 12°C
Dew Point: 52°F , 11°C
Humidity: 94%
Barometer: 30.23 inHg , 1023.7 hPa
Summary: Haze
Clouds: Few Clouds
Visibility: 5 miles , 8 km
Cloud details: Few Clouds 20000 ft
2021/12/05 21:47 KSQL 052147Z 00000KT 5SM HZ FEW200 12/11 A3023
KWVI - Watsonville, California, USA
Distance from station: SSE 27mi, 44km
Updated: Sun, 05-Dec-2021 1:53pm PST
Clear
Clear
 Wind from calm
Wind: Calm
Temperature: 61°F , 16°C
Dew Point: 48°F , 9°C
Humidity: 63%
Barometer: 30.19 inHg , 1022.4 hPa
Clouds: Clear
Visibility: 10 miles , 16 km
2021/12/05 21:53 KWVI 052153Z AUTO 00000KT 10SM CLR 16/09 A3019 RMK AO2 SLP224 T01610094
 
KHWD - Hayward, California, USA
Distance from station: N 28mi, 44km
Updated: Sun, 05-Dec-2021 1:54pm PST
Haze, Clear
Haze, Clear
 Wind from W
Wind: W 6 mph , 9 km/h
Temperature: 55°F , 13°C
Dew Point: 48°F , 9°C
Humidity: 77%
Barometer: 30.21 inHg , 1023 hPa
Summary: Haze
Clouds: Clear
Visibility: 5 miles , 8 km
2021/12/05 21:54 KHWD 052154Z 28005KT 5SM HZ CLR 13/09 A3021 RMK AO2 SLP241 T01330094
KSFO - San Francisco, California, USA
Distance from station: NW 30mi, 49km
Updated: Sun, 05-Dec-2021 1:56pm PST
Partly Cloudy
Partly Cloudy
 Wind from calm
Wind: Calm
Temperature: 55°F , 13°C
Dew Point: 48°F , 9°C
Humidity: 77%
Barometer: 30.22 inHg , 1023.4 hPa
Clouds: Partly Cloudy
Visibility: 10 miles , 16 km
Cloud details: Few Clouds 800 ft
Partly Cloudy 20000 ft
2021/12/05 21:56 KSFO 052156Z 00000KT 10SM FEW008 SCT200 13/09 A3022 RMK AO2 SLP233 T01330094
 
KHAF - Half Moon Bay, California, USA
Distance from station: WNW 31mi, 50km
Updated: Sun, 05-Dec-2021 2:15pm PST
Mist, Clear
Mist, Clear
 Wind from NNW
Wind: NNW 12 mph , 19 km/h, Gust: 17 mph , 28 km/h
Temperature: 54°F , 12°C
Dew Point: 52°F , 11°C
Humidity: 94%
Barometer: 30.22 inHg , 1023.4 hPa
Summary: Mist
Clouds: Clear
Visibility: 6 miles , 10 km
2021/12/05 22:15 KHAF 052215Z AUTO 34010G15KT 6SM BR CLR 12/11 A3022 RMK AO2
KLVK - Livermore, California, USA
Distance from station: NNE 31mi, 51km
Updated: Sun, 05-Dec-2021 1:53pm PST
Clear
Clear
 Wind from WNW
Wind: WNW 3 mph , 6 km/h
Temperature: 59°F , 15°C
Dew Point: 50°F , 10°C
Humidity: 72%
Barometer: 30.21 inHg , 1023 hPa
Clouds: Clear
Visibility: 10 miles , 16 km
2021/12/05 21:53 KLVK 052153Z 29003KT 10SM CLR 15/10 A3021 RMK AO2 SLP229 T01500100
 
KOAK - Oakland, California, USA
Distance from station: NNW 33mi, 53km
Updated: Sun, 05-Dec-2021 1:53pm PST
Partly Cloudy
Partly Cloudy
 Wind from W
Wind: W 8 mph , 13 km/h
Temperature: 54°F , 12°C
Dew Point: 48°F , 9°C
Humidity: 82%
Barometer: 30.23 inHg , 1023.7 hPa
Clouds: Partly Cloudy
Visibility: 7 miles , 11 km
Cloud details: Partly Cloudy 20000 ft
2021/12/05 21:53 KOAK 052153Z 28007KT 7SM SCT200 12/09 A3023 RMK AO2 SLP236 T01220089
KCVH - Hollister Muni, California, USA
Distance from station: SE 42mi, 68km
Updated: Sun, 05-Dec-2021 2:15pm PST
Clear
Clear
 Wind from calm
Wind: Calm
Temperature: 63°F , 17°C
Dew Point: 48°F , 9°C
Humidity: 59%
Barometer: 30.20 inHg , 1022.7 hPa
Clouds: Clear
Visibility: 10 miles , 16 km
2021/12/05 22:15 KCVH 052215Z AUTO 00000KT 10SM CLR 17/09 A3020 RMK A01
 
KSNS - Salinas, California, USA
Distance from station: SSE 48mi, 77km
Updated: Sun, 05-Dec-2021 1:53pm PST
Clear
Clear
 Wind from WNW
Wind: WNW 10 mph , 17 km/h
Temperature: 63°F , 17°C
Dew Point: 50°F , 10°C
Humidity: 64%
Barometer: 30.18 inHg , 1022 hPa
Clouds: Clear
Visibility: 7 miles , 11 km
2021/12/05 21:53 KSNS 052153Z 29009KT 7SM CLR 17/10 A3018 RMK AO2 SLP229 T01720100
KMRY - Monterey, California, USA
Distance from station: SSE 49mi, 78km
Updated: Sun, 05-Dec-2021 1:54pm PST
Haze, Clear
Haze, Clear
 Wind from WNW
Wind: WNW 6 mph , 9 km/h
Temperature: 55°F , 13°C
Dew Point: 48°F , 9°C
Humidity: 77%
Barometer: 30.21 inHg , 1023 hPa
Summary: Haze
Clouds: Clear
Visibility: 4 miles , 6 km
2021/12/05 21:54 KMRY 052154Z 29005KT 4SM HZ CLR 13/09 A3021 RMK AO2 SLP242 T01330089
 
KCCR - Concord, California, USA
Distance from station: N 50mi, 81km
Updated: Sun, 05-Dec-2021 1:53pm PST
Clear
Clear
 Wind from NW
Wind: NW 3 mph , 6 km/h
Temperature: 55°F , 13°C
Dew Point: 48°F , 9°C
Humidity: 77%
Barometer: 30.23 inHg , 1023.7 hPa
Clouds: Clear
Visibility: 10 miles , 16 km
2021/12/05 21:53 KCCR 052153Z 31003KT 10SM CLR 13/09 A3023 RMK AO2 SLP222 T01330089
deformed-offering